sensor_id;sensor_type;location;lat;lon;timestamp;temperature;humidity
37052;DHT22;22964;52.272;13.356;2022-08-18T00:01:24;27.80;43.40
37052;DHT22;22964;52.272;13.356;2022-08-18T00:03:50;27.80;43.30
37052;DHT22;22964;52.272;13.356;2022-08-18T00:06:17;27.70;43.40
37052;DHT22;22964;52.272;13.356;2022-08-18T00:08:43;27.70;43.60
37052;DHT22;22964;52.272;13.356;2022-08-18T00:11:09;27.70;43.70
37052;DHT22;22964;52.272;13.356;2022-08-18T00:13:35;27.60;43.70
37052;DHT22;22964;52.272;13.356;2022-08-18T00:16:01;27.60;43.70
37052;DHT22;22964;52.272;13.356;2022-08-18T00:18:27;27.60;43.60
37052;DHT22;22964;52.272;13.356;2022-08-18T00:20:52;27.50;43.70
37052;DHT22;22964;52.272;13.356;2022-08-18T00:23:18;27.50;43.90
37052;DHT22;22964;52.272;13.356;2022-08-18T00:25:44;27.50;43.90
37052;DHT22;22964;52.272;13.356;2022-08-18T00:28:10;27.50;44.00
37052;DHT22;22964;52.272;13.356;2022-08-18T00:30:37;27.50;44.20
37052;DHT22;22964;52.272;13.356;2022-08-18T00:33:03;27.40;44.10
37052;DHT22;22964;52.272;13.356;2022-08-18T00:35:32;27.40;44.30
37052;DHT22;22964;52.272;13.356;2022-08-18T00:38:00;27.40;44.60
37052;DHT22;22964;52.272;13.356;2022-08-18T00:40:32;27.40;44.50
37052;DHT22;22964;52.272;13.356;2022-08-18T00:43:03;27.40;45.00
37052;DHT22;22964;52.272;13.356;2022-08-18T00:45:34;27.40;44.80
37052;DHT22;22964;52.272;13.356;2022-08-18T00:48:02;27.30;44.80
37052;DHT22;22964;52.272;13.356;2022-08-18T00:50:33;27.30;44.70
37052;DHT22;22964;52.272;13.356;2022-08-18T00:55:42;27.30;45.40
37052;DHT22;22964;52.272;13.356;2022-08-18T00:58:14;27.30;44.90
37052;DHT22;22964;52.272;13.356;2022-08-18T01:00:41;27.20;45.20
37052;DHT22;22964;52.272;13.356;2022-08-18T01:03:13;27.20;44.90
37052;DHT22;22964;52.272;13.356;2022-08-18T01:05:47;27.10;45.10
37052;DHT22;22964;52.272;13.356;2022-08-18T01:08:16;27.10;45.60
37052;DHT22;22964;52.272;13.356;2022-08-18T01:10:43;27.00;45.30
37052;DHT22;22964;52.272;13.356;2022-08-18T01:13:09;27.00;45.30
37052;DHT22;22964;52.272;13.356;2022-08-18T01:15:35;27.00;45.40
37052;DHT22;22964;52.272;13.356;2022-08-18T01:18:09;27.00;45.40
37052;DHT22;22964;52.272;13.356;2022-08-18T01:23:58;26.90;46.10
37052;DHT22;22964;52.272;13.356;2022-08-18T01:26:27;26.80;45.50
37052;DHT22;22964;52.272;13.356;2022-08-18T01:28:54;26.80;45.90
37052;DHT22;22964;52.272;13.356;2022-08-18T01:31:35;26.70;45.70
37052;DHT22;22964;52.272;13.356;2022-08-18T01:34:05;26.70;46.10
37052;DHT22;22964;52.272;13.356;2022-08-18T01:36:33;26.60;46.10
37052;DHT22;22964;52.272;13.356;2022-08-18T01:39:03;26.60;46.10
37052;DHT22;22964;52.272;13.356;2022-08-18T01:41:29;26.60;46.10
37052;DHT22;22964;52.272;13.356;2022-08-18T01:43:57;26.50;46.10
37052;DHT22;22964;52.272;13.356;2022-08-18T01:46:22;26.50;46.20
37052;DHT22;22964;52.272;13.356;2022-08-18T01:48:49;26.40;46.10
37052;DHT22;22964;52.272;13.356;2022-08-18T01:51:16;26.40;46.20
37052;DHT22;22964;52.272;13.356;2022-08-18T01:53:44;26.30;46.40
37052;DHT22;22964;52.272;13.356;2022-08-18T01:56:11;26.30;46.40
37052;DHT22;22964;52.272;13.356;2022-08-18T01:58:37;26.20;46.40
37052;DHT22;22964;52.272;13.356;2022-08-18T02:01:03;26.20;46.40
37052;DHT22;22964;52.272;13.356;2022-08-18T02:03:36;26.20;46.60
37052;DHT22;22964;52.272;13.356;2022-08-18T02:06:07;26.10;46.80
37052;DHT22;22964;52.272;13.356;2022-08-18T02:08:34;26.10;46.80
37052;DHT22;22964;52.272;13.356;2022-08-18T02:11:00;26.10;46.80
37052;DHT22;22964;52.272;13.356;2022-08-18T02:13:27;26.10;47.00
37052;DHT22;22964;52.272;13.356;2022-08-18T02:15:53;26.00;47.10
37052;DHT22;22964;52.272;13.356;2022-08-18T02:18:25;26.00;47.30
37052;DHT22;22964;52.272;13.356;2022-08-18T02:20:53;25.90;47.50
37052;DHT22;22964;52.272;13.356;2022-08-18T02:23:18;25.90;47.30
37052;DHT22;22964;52.272;13.356;2022-08-18T02:25:44;25.90;47.30
37052;DHT22;22964;52.272;13.356;2022-08-18T02:28:10;25.90;47.50
37052;DHT22;22964;52.272;13.356;2022-08-18T02:30:36;25.80;47.60
37052;DHT22;22964;52.272;13.356;2022-08-18T02:33:06;25.80;47.70
37052;DHT22;22964;52.272;13.356;2022-08-18T02:35:32;25.70;47.80
37052;DHT22;22964;52.272;13.356;2022-08-18T02:37:59;25.70;47.80
37052;DHT22;22964;52.272;13.356;2022-08-18T02:40:25;25.70;47.90
37052;DHT22;22964;52.272;13.356;2022-08-18T02:42:51;25.70;48.00
37052;DHT22;22964;52.272;13.356;2022-08-18T02:45:18;25.60;48.00
37052;DHT22;22964;52.272;13.356;2022-08-18T02:47:44;25.60;48.10
37052;DHT22;22964;52.272;13.356;2022-08-18T02:50:11;25.60;48.10
37052;DHT22;22964;52.272;13.356;2022-08-18T02:52:38;25.60;48.20
37052;DHT22;22964;52.272;13.356;2022-08-18T02:55:04;25.60;48.10
37052;DHT22;22964;52.272;13.356;2022-08-18T02:57:30;25.50;48.20
37052;DHT22;22964;52.272;13.356;2022-08-18T02:59:56;25.50;48.20
37052;DHT22;22964;52.272;13.356;2022-08-18T03:02:22;25.50;48.30
37052;DHT22;22964;52.272;13.356;2022-08-18T03:04:48;25.50;48.30
37052;DHT22;22964;52.272;13.356;2022-08-18T03:07:13;25.40;48.40
37052;DHT22;22964;52.272;13.356;2022-08-18T03:09:40;25.40;48.40
37052;DHT22;22964;52.272;13.356;2022-08-18T03:12:07;25.40;48.50
37052;DHT22;22964;52.272;13.356;2022-08-18T03:14:34;25.40;48.50
37052;DHT22;22964;52.272;13.356;2022-08-18T03:17:06;25.40;48.60
37052;DHT22;22964;52.272;13.356;2022-08-18T03:19:33;25.40;48.90
37052;DHT22;22964;52.272;13.356;2022-08-18T03:21:59;25.30;48.80
37052;DHT22;22964;52.272;13.356;2022-08-18T03:24:25;25.30;48.80
37052;DHT22;22964;52.272;13.356;2022-08-18T03:26:53;25.30;48.90
37052;DHT22;22964;52.272;13.356;2022-08-18T03:29:22;25.30;48.90
37052;DHT22;22964;52.272;13.356;2022-08-18T03:31:49;25.20;48.80
37052;DHT22;22964;52.272;13.356;2022-08-18T03:34:17;25.20;49.00
37052;DHT22;22964;52.272;13.356;2022-08-18T03:36:47;25.20;49.10
37052;DHT22;22964;52.272;13.356;2022-08-18T03:39:14;25.20;49.10
37052;DHT22;22964;52.272;13.356;2022-08-18T03:41:42;25.20;49.20
37052;DHT22;22964;52.272;13.356;2022-08-18T03:44:09;25.10;49.20
37052;DHT22;22964;52.272;13.356;2022-08-18T03:46:35;25.10;49.30
37052;DHT22;22964;52.272;13.356;2022-08-18T03:49:01;25.10;49.30
37052;DHT22;22964;52.272;13.356;2022-08-18T03:51:29;25.10;49.40
37052;DHT22;22964;52.272;13.356;2022-08-18T03:53:59;25.00;49.60
37052;DHT22;22964;52.272;13.356;2022-08-18T03:56:28;25.00;49.60
37052;DHT22;22964;52.272;13.356;2022-08-18T03:59:00;25.00;49.70
37052;DHT22;22964;52.272;13.356;2022-08-18T04:01:28;25.00;50.10
37052;DHT22;22964;52.272;13.356;2022-08-18T04:04:00;25.00;49.30
37052;DHT22;22964;52.272;13.356;2022-08-18T04:06:29;25.00;49.80
37052;DHT22;22964;52.272;13.356;2022-08-18T04:08:58;24.90;50.10
37052;DHT22;22964;52.272;13.356;2022-08-18T04:11:25;24.90;50.20
37052;DHT22;22964;52.272;13.356;2022-08-18T04:13:54;24.90;50.20
37052;DHT22;22964;52.272;13.356;2022-08-18T04:16:24;24.80;50.20
37052;DHT22;22964;52.272;13.356;2022-08-18T04:18:50;24.80;50.20
37052;DHT22;22964;52.272;13.356;2022-08-18T04:21:15;24.70;50.10
37052;DHT22;22964;52.272;13.356;2022-08-18T04:23:42;24.80;50.30
37052;DHT22;22964;52.272;13.356;2022-08-18T04:26:09;24.70;50.30
37052;DHT22;22964;52.272;13.356;2022-08-18T04:28:36;24.70;50.60
37052;DHT22;22964;52.272;13.356;2022-08-18T04:31:10;24.60;50.90
37052;DHT22;22964;52.272;13.356;2022-08-18T04:33:37;24.60;51.30
37052;DHT22;22964;52.272;13.356;2022-08-18T04:36:08;24.60;50.90
37052;DHT22;22964;52.272;13.356;2022-08-18T04:38:34;24.60;51.30
37052;DHT22;22964;52.272;13.356;2022-08-18T04:41:00;24.60;51.00
37052;DHT22;22964;52.272;13.356;2022-08-18T04:43:26;24.60;51.20
37052;DHT22;22964;52.272;13.356;2022-08-18T04:45:51;24.60;51.20
37052;DHT22;22964;52.272;13.356;2022-08-18T04:48:17;24.60;51.30
37052;DHT22;22964;52.272;13.356;2022-08-18T04:50:43;24.60;51.30
37052;DHT22;22964;52.272;13.356;2022-08-18T04:53:09;24.70;51.40
37052;DHT22;22964;52.272;13.356;2022-08-18T04:55:54;24.60;51.40
37052;DHT22;22964;52.272;13.356;2022-08-18T04:58:22;24.70;51.60
37052;DHT22;22964;52.272;13.356;2022-08-18T05:00:59;24.70;51.60
37052;DHT22;22964;52.272;13.356;2022-08-18T05:03:26;24.70;52.20
37052;DHT22;22964;52.272;13.356;2022-08-18T05:05:56;24.80;51.80
37052;DHT22;22964;52.272;13.356;2022-08-18T05:08:25;24.80;52.10
37052;DHT22;22964;52.272;13.356;2022-08-18T05:10:57;24.80;51.80
37052;DHT22;22964;52.272;13.356;2022-08-18T05:13:23;24.80;52.20
37052;DHT22;22964;52.272;13.356;2022-08-18T05:15:58;24.80;51.90
37052;DHT22;22964;52.272;13.356;2022-08-18T05:18:29;24.90;52.40
37052;DHT22;22964;52.272;13.356;2022-08-18T05:20:56;24.90;52.20
37052;DHT22;22964;52.272;13.356;2022-08-18T05:23:22;24.90;52.20
37052;DHT22;22964;52.272;13.356;2022-08-18T05:25:48;25.00;52.20
37052;DHT22;22964;52.272;13.356;2022-08-18T05:28:14;25.00;52.30
37052;DHT22;22964;52.272;13.356;2022-08-18T05:30:41;25.00;53.10
37052;DHT22;22964;52.272;13.356;2022-08-18T05:33:07;25.00;52.50
37052;DHT22;22964;52.272;13.356;2022-08-18T05:35:45;25.10;52.60
37052;DHT22;22964;52.272;13.356;2022-08-18T05:41:05;25.20;53.00
37052;DHT22;22964;52.272;13.356;2022-08-18T05:43:31;25.20;52.90
37052;DHT22;22964;52.272;13.356;2022-08-18T05:45:58;25.30;52.00
37052;DHT22;22964;52.272;13.356;2022-08-18T05:48:26;25.30;52.30
37052;DHT22;22964;52.272;13.356;2022-08-18T05:50:52;25.30;52.50
37052;DHT22;22964;52.272;13.356;2022-08-18T05:53:19;25.40;52.80
37052;DHT22;22964;52.272;13.356;2022-08-18T05:56:05;25.50;52.90
37052;DHT22;22964;52.272;13.356;2022-08-18T05:58:52;25.60;52.80
37052;DHT22;22964;52.272;13.356;2022-08-18T06:01:34;25.70;52.90
37052;DHT22;22964;52.272;13.356;2022-08-18T06:04:10;25.70;53.10
37052;DHT22;22964;52.272;13.356;2022-08-18T06:06:40;25.80;52.90
37052;DHT22;22964;52.272;13.356;2022-08-18T06:11:40;26.00;52.70
37052;DHT22;22964;52.272;13.356;2022-08-18T06:14:06;26.10;52.40
37052;DHT22;22964;52.272;13.356;2022-08-18T06:22:35;26.40;52.80
37052;DHT22;22964;52.272;13.356;2022-08-18T06:25:26;26.50;52.70
37052;DHT22;22964;52.272;13.356;2022-08-18T06:28:05;26.70;52.20
37052;DHT22;22964;52.272;13.356;2022-08-18T06:30:45;26.80;52.00
37052;DHT22;22964;52.272;13.356;2022-08-18T06:33:21;26.90;51.90
37052;DHT22;22964;52.272;13.356;2022-08-18T06:35:51;27.00;51.60
37052;DHT22;22964;52.272;13.356;2022-08-18T06:39:00;27.20;51.40
37052;DHT22;22964;52.272;13.356;2022-08-18T06:41:41;27.30;51.10
37052;DHT22;22964;52.272;13.356;2022-08-18T06:47:04;27.50;51.20
37052;DHT22;22964;52.272;13.356;2022-08-18T06:49:49;27.50;50.80
37052;DHT22;22964;52.272;13.356;2022-08-18T06:52:35;27.60;50.90
37052;DHT22;22964;52.272;13.356;2022-08-18T06:55:15;27.70;50.70
37052;DHT22;22964;52.272;13.356;2022-08-18T06:57:57;27.90;50.60
37052;DHT22;22964;52.272;13.356;2022-08-18T07:00:27;28.00;50.30
37052;DHT22;22964;52.272;13.356;2022-08-18T07:03:00;28.10;50.50
37052;DHT22;22964;52.272;13.356;2022-08-18T07:05:31;28.30;50.70
37052;DHT22;22964;52.272;13.356;2022-08-18T07:10:50;28.60;49.80
37052;DHT22;22964;52.272;13.356;2022-08-18T07:15:45;29.00;49.40
37052;DHT22;22964;52.272;13.356;2022-08-18T07:18:14;29.10;49.30
37052;DHT22;22964;52.272;13.356;2022-08-18T07:20:51;29.30;49.00
37052;DHT22;22964;52.272;13.356;2022-08-18T07:23:23;29.40;48.40
37052;DHT22;22964;52.272;13.356;2022-08-18T07:25:58;29.60;48.20
37052;DHT22;22964;52.272;13.356;2022-08-18T07:28:33;29.70;47.90
37052;DHT22;22964;52.272;13.356;2022-08-18T07:31:11;29.80;47.30
37052;DHT22;22964;52.272;13.356;2022-08-18T07:33:40;29.90;46.90
37052;DHT22;22964;52.272;13.356;2022-08-18T07:36:08;30.10;47.10
37052;DHT22;22964;52.272;13.356;2022-08-18T07:38:45;30.10;47.00
37052;DHT22;22964;52.272;13.356;2022-08-18T07:41:24;30.20;46.00
37052;DHT22;22964;52.272;13.356;2022-08-18T07:49:23;30.50;45.70
37052;DHT22;22964;52.272;13.356;2022-08-18T07:59:35;30.60;45.10
37052;DHT22;22964;52.272;13.356;2022-08-18T08:07:34;30.90;45.10
37052;DHT22;22964;52.272;13.356;2022-08-18T08:10:21;31.00;44.90
37052;DHT22;22964;52.272;13.356;2022-08-18T08:15:56;31.30;44.90
37052;DHT22;22964;52.272;13.356;2022-08-18T08:21:04;31.50;44.70
37052;DHT22;22964;52.272;13.356;2022-08-18T08:23:53;31.60;44.60
37052;DHT22;22964;52.272;13.356;2022-08-18T08:26:47;31.70;43.80
37052;DHT22;22964;52.272;13.356;2022-08-18T08:32:05;32.00;44.30
37052;DHT22;22964;52.272;13.356;2022-08-18T08:34:49;32.20;44.20
37052;DHT22;22964;52.272;13.356;2022-08-18T08:37:32;32.40;43.70
37052;DHT22;22964;52.272;13.356;2022-08-18T08:40:17;32.60;42.90
37052;DHT22;22964;52.272;13.356;2022-08-18T08:42:49;32.80;43.20
37052;DHT22;22964;52.272;13.356;2022-08-18T08:45:29;33.00;42.70
37052;DHT22;22964;52.272;13.356;2022-08-18T08:48:12;33.30;42.20
37052;DHT22;22964;52.272;13.356;2022-08-18T08:53:25;33.70;41.30
37052;DHT22;22964;52.272;13.356;2022-08-18T08:56:05;33.90;41.10
37052;DHT22;22964;52.272;13.356;2022-08-18T08:59:08;34.10;40.90
37052;DHT22;22964;52.272;13.356;2022-08-18T09:02:13;34.30;41.40
37052;DHT22;22964;52.272;13.356;2022-08-18T09:05:14;34.50;40.80
37052;DHT22;22964;52.272;13.356;2022-08-18T09:08:03;34.70;40.50
37052;DHT22;22964;52.272;13.356;2022-08-18T09:22:12;35.30;39.80
37052;DHT22;22964;52.272;13.356;2022-08-18T09:24:45;35.50;39.90
37052;DHT22;22964;52.272;13.356;2022-08-18T09:27:29;35.60;39.20
37052;DHT22;22964;52.272;13.356;2022-08-18T09:29:59;35.80;39.20
37052;DHT22;22964;52.272;13.356;2022-08-18T09:40:15;36.10;38.10
37052;DHT22;22964;52.272;13.356;2022-08-18T09:43:38;36.20;37.60
37052;DHT22;22964;52.272;13.356;2022-08-18T09:46:06;36.40;37.10
37052;DHT22;22964;52.272;13.356;2022-08-18T09:48:37;36.40;37.50
37052;DHT22;22964;52.272;13.356;2022-08-18T09:56:16;36.70;37.50
37052;DHT22;22964;52.272;13.356;2022-08-18T10:06:44;37.40;35.80
37052;DHT22;22964;52.272;13.356;2022-08-18T10:09:30;37.50;36.40
37052;DHT22;22964;52.272;13.356;2022-08-18T10:14:58;37.80;36.10
37052;DHT22;22964;52.272;13.356;2022-08-18T10:20:48;38.20;35.40
37052;DHT22;22964;52.272;13.356;2022-08-18T10:34:40;39.20;33.90
37052;DHT22;22964;52.272;13.356;2022-08-18T10:39:53;39.50;32.60
37052;DHT22;22964;52.272;13.356;2022-08-18T10:42:30;39.60;33.10
37052;DHT22;22964;52.272;13.356;2022-08-18T10:47:37;39.70;31.60
37052;DHT22;22964;52.272;13.356;2022-08-18T10:50:08;39.70;32.40
37052;DHT22;22964;52.272;13.356;2022-08-18T10:58:26;39.90;31.30
37052;DHT22;22964;52.272;13.356;2022-08-18T11:06:26;40.10;30.70
37052;DHT22;22964;52.272;13.356;2022-08-18T11:08:58;40.10;31.00
37052;DHT22;22964;52.272;13.356;2022-08-18T11:11:34;40.10;30.30
37052;DHT22;22964;52.272;13.356;2022-08-18T11:17:07;40.00;30.00
37052;DHT22;22964;52.272;13.356;2022-08-18T11:19:38;40.00;30.00
37052;DHT22;22964;52.272;13.356;2022-08-18T11:22:05;40.00;30.80
37052;DHT22;22964;52.272;13.356;2022-08-18T11:24:31;40.00;30.00
37052;DHT22;22964;52.272;13.356;2022-08-18T11:27:03;39.90;30.00
37052;DHT22;22964;52.272;13.356;2022-08-18T11:29:35;39.90;30.50
37052;DHT22;22964;52.272;13.356;2022-08-18T11:32:04;39.80;29.90
37052;DHT22;22964;52.272;13.356;2022-08-18T11:34:44;39.70;30.00
37052;DHT22;22964;52.272;13.356;2022-08-18T11:39:50;39.70;29.80
37052;DHT22;22964;52.272;13.356;2022-08-18T11:42:18;39.70;29.50
37052;DHT22;22964;52.272;13.356;2022-08-18T11:44:45;39.70;29.80
37052;DHT22;22964;52.272;13.356;2022-08-18T11:47:20;39.70;29.80
37052;DHT22;22964;52.272;13.356;2022-08-18T11:50:04;39.70;29.50
37052;DHT22;22964;52.272;13.356;2022-08-18T11:52:53;39.60;29.10
37052;DHT22;22964;52.272;13.356;2022-08-18T11:55:31;39.60;29.40
37052;DHT22;22964;52.272;13.356;2022-08-18T11:57:59;39.60;29.10
37052;DHT22;22964;52.272;13.356;2022-08-18T12:00:52;39.70;29.70
37052;DHT22;22964;52.272;13.356;2022-08-18T12:05:47;39.80;29.80
37052;DHT22;22964;52.272;13.356;2022-08-18T12:08:26;39.90;29.30
37052;DHT22;22964;52.272;13.356;2022-08-18T12:11:13;40.10;28.70
37052;DHT22;22964;52.272;13.356;2022-08-18T12:13:43;40.30;28.40
37052;DHT22;22964;52.272;13.356;2022-08-18T12:16:16;40.50;28.70
37052;DHT22;22964;52.272;13.356;2022-08-18T12:18:54;40.60;28.30
37052;DHT22;22964;52.272;13.356;2022-08-18T12:21:20;40.80;28.30
37052;DHT22;22964;52.272;13.356;2022-08-18T12:23:47;40.90;28.10
37052;DHT22;22964;52.272;13.356;2022-08-18T12:26:13;41.00;27.70
37052;DHT22;22964;52.272;13.356;2022-08-18T12:28:40;41.10;27.60
37052;DHT22;22964;52.272;13.356;2022-08-18T12:31:07;41.20;27.50
37052;DHT22;22964;52.272;13.356;2022-08-18T12:33:36;41.20;27.20
37052;DHT22;22964;52.272;13.356;2022-08-18T12:36:03;41.20;27.20
37052;DHT22;22964;52.272;13.356;2022-08-18T12:38:31;41.30;27.30
37052;DHT22;22964;52.272;13.356;2022-08-18T12:40:57;41.30;27.20
37052;DHT22;22964;52.272;13.356;2022-08-18T12:43:23;41.40;27.40
37052;DHT22;22964;52.272;13.356;2022-08-18T12:45:49;41.50;27.30
37052;DHT22;22964;52.272;13.356;2022-08-18T12:48:15;41.60;26.90
37052;DHT22;22964;52.272;13.356;2022-08-18T12:50:41;41.70;26.60
37052;DHT22;22964;52.272;13.356;2022-08-18T12:53:07;41.80;26.10
37052;DHT22;22964;52.272;13.356;2022-08-18T12:55:39;41.90;26.00
37052;DHT22;22964;52.272;13.356;2022-08-18T12:58:05;41.80;25.60
37052;DHT22;22964;52.272;13.356;2022-08-18T13:00:33;41.80;25.90
37052;DHT22;22964;52.272;13.356;2022-08-18T13:02:59;41.70;25.70
37052;DHT22;22964;52.272;13.356;2022-08-18T13:05:26;41.60;25.80
37052;DHT22;22964;52.272;13.356;2022-08-18T13:07:53;41.60;25.50
37052;DHT22;22964;52.272;13.356;2022-08-18T13:10:22;41.40;25.50
37052;DHT22;22964;52.272;13.356;2022-08-18T13:12:48;41.40;25.80
37052;DHT22;22964;52.272;13.356;2022-08-18T13:15:14;41.40;25.70
37052;DHT22;22964;52.272;13.356;2022-08-18T13:17:39;41.30;25.60
37052;DHT22;22964;52.272;13.356;2022-08-18T13:20:12;41.30;25.40
37052;DHT22;22964;52.272;13.356;2022-08-18T13:22:38;41.20;24.90
37052;DHT22;22964;52.272;13.356;2022-08-18T13:25:07;41.20;25.30
37052;DHT22;22964;52.272;13.356;2022-08-18T13:27:34;41.10;25.20
37052;DHT22;22964;52.272;13.356;2022-08-18T13:30:02;41.10;25.30
37052;DHT22;22964;52.272;13.356;2022-08-18T13:32:28;41.00;25.40
37052;DHT22;22964;52.272;13.356;2022-08-18T13:34:53;40.90;25.30
37052;DHT22;22964;52.272;13.356;2022-08-18T13:37:19;40.80;25.20
37052;DHT22;22964;52.272;13.356;2022-08-18T13:39:45;40.70;25.20
37052;DHT22;22964;52.272;13.356;2022-08-18T13:42:11;40.60;25.20
37052;DHT22;22964;52.272;13.356;2022-08-18T13:44:37;40.50;25.20
37052;DHT22;22964;52.272;13.356;2022-08-18T13:47:03;40.40;25.30
37052;DHT22;22964;52.272;13.356;2022-08-18T13:49:29;40.30;25.50
37052;DHT22;22964;52.272;13.356;2022-08-18T13:51:54;40.20;25.50
37052;DHT22;22964;52.272;13.356;2022-08-18T13:54:31;40.10;25.60
37052;DHT22;22964;52.272;13.356;2022-08-18T13:56:58;40.00;25.50
37052;DHT22;22964;52.272;13.356;2022-08-18T13:59:25;40.00;25.60
37052;DHT22;22964;52.272;13.356;2022-08-18T14:02:06;40.00;25.70
37052;DHT22;22964;52.272;13.356;2022-08-18T14:04:33;39.90;25.50
37052;DHT22;22964;52.272;13.356;2022-08-18T14:06:59;40.00;25.80
37052;DHT22;22964;52.272;13.356;2022-08-18T14:09:28;40.00;25.60
37052;DHT22;22964;52.272;13.356;2022-08-18T14:11:54;39.90;25.40
37052;DHT22;22964;52.272;13.356;2022-08-18T14:14:20;39.90;25.60
37052;DHT22;22964;52.272;13.356;2022-08-18T14:16:46;39.90;25.60
37052;DHT22;22964;52.272;13.356;2022-08-18T14:19:12;39.80;25.50
37052;DHT22;22964;52.272;13.356;2022-08-18T14:21:56;39.90;25.50
37052;DHT22;22964;52.272;13.356;2022-08-18T14:24:42;39.80;25.70
37052;DHT22;22964;52.272;13.356;2022-08-18T14:27:32;39.70;25.90
37052;DHT22;22964;52.272;13.356;2022-08-18T14:30:10;39.70;25.90
37052;DHT22;22964;52.272;13.356;2022-08-18T14:32:37;39.70;26.10
37052;DHT22;22964;52.272;13.356;2022-08-18T14:35:05;39.60;26.00
37052;DHT22;22964;52.272;13.356;2022-08-18T14:37:32;39.60;26.10
37052;DHT22;22964;52.272;13.356;2022-08-18T14:39:57;39.50;26.90
37052;DHT22;22964;52.272;13.356;2022-08-18T14:42:24;39.50;26.40
37052;DHT22;22964;52.272;13.356;2022-08-18T14:44:50;39.40;26.50
37052;DHT22;22964;52.272;13.356;2022-08-18T14:47:16;39.30;26.50
37052;DHT22;22964;52.272;13.356;2022-08-18T14:49:42;39.20;26.50
37052;DHT22;22964;52.272;13.356;2022-08-18T14:52:08;39.20;26.70
37052;DHT22;22964;52.272;13.356;2022-08-18T14:54:35;39.00;26.70
37052;DHT22;22964;52.272;13.356;2022-08-18T14:57:02;39.00;26.80
37052;DHT22;22964;52.272;13.356;2022-08-18T14:59:30;38.90;26.90
37052;DHT22;22964;52.272;13.356;2022-08-18T15:01:57;38.90;27.00
37052;DHT22;22964;52.272;13.356;2022-08-18T15:04:23;38.80;27.10
37052;DHT22;22964;52.272;13.356;2022-08-18T15:06:49;38.70;27.20
37052;DHT22;22964;52.272;13.356;2022-08-18T15:09:15;38.70;27.20
37052;DHT22;22964;52.272;13.356;2022-08-18T15:11:41;38.60;27.40
37052;DHT22;22964;52.272;13.356;2022-08-18T15:14:07;38.50;27.40
37052;DHT22;22964;52.272;13.356;2022-08-18T15:16:34;38.50;27.60
37052;DHT22;22964;52.272;13.356;2022-08-18T15:19:01;38.40;27.60
37052;DHT22;22964;52.272;13.356;2022-08-18T15:21:28;38.40;27.70
37052;DHT22;22964;52.272;13.356;2022-08-18T15:24:12;38.20;27.70
37052;DHT22;22964;52.272;13.356;2022-08-18T15:26:58;38.20;27.90
37052;DHT22;22964;52.272;13.356;2022-08-18T15:29:25;38.00;27.90
37052;DHT22;22964;52.272;13.356;2022-08-18T15:31:51;38.00;28.00
37052;DHT22;22964;52.272;13.356;2022-08-18T15:34:17;37.90;28.10
37052;DHT22;22964;52.272;13.356;2022-08-18T15:36:43;37.80;28.20
37052;DHT22;22964;52.272;13.356;2022-08-18T15:39:09;37.80;28.30
37052;DHT22;22964;52.272;13.356;2022-08-18T15:41:40;37.70;28.30
37052;DHT22;22964;52.272;13.356;2022-08-18T15:44:09;37.60;28.40
37052;DHT22;22964;52.272;13.356;2022-08-18T15:46:37;37.50;28.40
37052;DHT22;22964;52.272;13.356;2022-08-18T15:49:04;37.40;28.60
37052;DHT22;22964;52.272;13.356;2022-08-18T15:51:33;37.30;28.60
37052;DHT22;22964;52.272;13.356;2022-08-18T15:53:59;37.20;28.70
37052;DHT22;22964;52.272;13.356;2022-08-18T15:56:25;37.10;28.80
37052;DHT22;22964;52.272;13.356;2022-08-18T15:58:51;37.00;28.80
37052;DHT22;22964;52.272;13.356;2022-08-18T16:01:18;36.90;28.80
37052;DHT22;22964;52.272;13.356;2022-08-18T16:03:46;36.80;28.90
37052;DHT22;22964;52.272;13.356;2022-08-18T16:06:14;36.70;29.50
37052;DHT22;22964;52.272;13.356;2022-08-18T16:08:40;36.60;29.10
37052;DHT22;22964;52.272;13.356;2022-08-18T16:11:09;36.50;29.20
37052;DHT22;22964;52.272;13.356;2022-08-18T16:13:35;36.40;29.50
37052;DHT22;22964;52.272;13.356;2022-08-18T16:16:08;36.30;29.70
37052;DHT22;22964;52.272;13.356;2022-08-18T16:18:34;36.20;30.10
37052;DHT22;22964;52.272;13.356;2022-08-18T16:21:08;36.10;30.00
37052;DHT22;22964;52.272;13.356;2022-08-18T16:23:40;36.10;30.70
37052;DHT22;22964;52.272;13.356;2022-08-18T16:26:07;36.10;31.00
37052;DHT22;22964;52.272;13.356;2022-08-18T16:28:33;36.00;30.90
37052;DHT22;22964;52.272;13.356;2022-08-18T16:31:00;36.00;31.20
37052;DHT22;22964;52.272;13.356;2022-08-18T16:33:27;35.90;31.30
37052;DHT22;22964;52.272;13.356;2022-08-18T16:35:52;35.90;31.50
37052;DHT22;22964;52.272;13.356;2022-08-18T16:38:19;35.80;31.60
37052;DHT22;22964;52.272;13.356;2022-08-18T16:40:45;35.80;31.90
37052;DHT22;22964;52.272;13.356;2022-08-18T16:43:11;35.80;31.90
37052;DHT22;22964;52.272;13.356;2022-08-18T16:45:39;35.80;32.00
37052;DHT22;22964;52.272;13.356;2022-08-18T16:48:07;35.70;32.20
37052;DHT22;22964;52.272;13.356;2022-08-18T16:50:35;35.70;31.80
37052;DHT22;22964;52.272;13.356;2022-08-18T16:53:02;35.70;31.70
37052;DHT22;22964;52.272;13.356;2022-08-18T16:55:27;35.60;31.60
37052;DHT22;22964;52.272;13.356;2022-08-18T16:57:54;35.50;31.70
37052;DHT22;22964;52.272;13.356;2022-08-18T17:00:38;35.40;31.90
37052;DHT22;22964;52.272;13.356;2022-08-18T17:03:23;35.30;32.00
37052;DHT22;22964;52.272;13.356;2022-08-18T17:06:13;35.10;32.20
37052;DHT22;22964;52.272;13.356;2022-08-18T17:08:39;34.90;32.70
37052;DHT22;22964;52.272;13.356;2022-08-18T17:11:08;34.80;31.70
37052;DHT22;22964;52.272;13.356;2022-08-18T17:13:36;34.70;32.50
37052;DHT22;22964;52.272;13.356;2022-08-18T17:16:02;34.50;32.70
37052;DHT22;22964;52.272;13.356;2022-08-18T17:18:28;34.40;32.90
37052;DHT22;22964;52.272;13.356;2022-08-18T17:20:55;34.20;33.00
37052;DHT22;22964;52.272;13.356;2022-08-18T17:23:21;34.10;33.30
37052;DHT22;22964;52.272;13.356;2022-08-18T17:25:48;34.00;33.50
37052;DHT22;22964;52.272;13.356;2022-08-18T17:28:17;33.90;34.60
37052;DHT22;22964;52.272;13.356;2022-08-18T17:30:48;33.80;34.20
37052;DHT22;22964;52.272;13.356;2022-08-18T17:33:20;33.70;34.20
37052;DHT22;22964;52.272;13.356;2022-08-18T17:35:47;33.70;34.60
37052;DHT22;22964;52.272;13.356;2022-08-18T17:38:27;33.60;34.60
37052;DHT22;22964;52.272;13.356;2022-08-18T17:40:59;33.50;35.00
37052;DHT22;22964;52.272;13.356;2022-08-18T17:43:32;33.50;35.00
37052;DHT22;22964;52.272;13.356;2022-08-18T17:46:09;33.50;35.40